Seaways-10 — J8B3261 — position and weather

sailwx.info

Track history (hours):
 
Tides and Currents Weather Stations Pressure Air Temp Water Temp Dewpoint Dewpoint Depression Visibility Wind Speed Wind Dir Waves Ship Positions

Seaways-10

Last reported at 2018-Feb-24 08:00 UTC. Time now 2018-Feb-24 08:16 UTC.
Position N 05°39' E 000°04'.

Length 45 m; draft 4.3 m.

Type: Tug. MMSI: 375157000.

Date/timePositionNaut miles runAvg speedWind from/ knotsBaromVisibWave heightAir tempDewpointWater temp
2018-Feb-24 08:00N 05°39' E 000°04'0 0.0
2018-Feb-24 07:30N 05°39' E 000°04'0 0.0
2018-Feb-24 07:00N 05°39' E 000°04'0 0.0
2018-Feb-24 06:31N 05°39' E 000°04'0 0.0
2018-Feb-24 06:01N 05°39' E 000°04'0 0.0
2018-Feb-24 05:31N 05°39' E 000°04'0 0.0
2018-Feb-24 05:01N 05°39' E 000°04'0 0.0
2018-Feb-24 04:31N 05°39' E 000°04'0 0.0
2018-Feb-24 04:01N 05°39' E 000°04'0 0.0
2018-Feb-24 03:30N 05°39' E 000°04'0 0.0
2018-Feb-24 02:58N 05°39' E 000°04'0 0.0
2018-Feb-24 02:30N 05°39' E 000°04'0 0.0
2018-Feb-24 02:00N 05°39' E 000°04'0 0.0
2018-Feb-24 01:30N 05°39' E 000°04'0 0.0
2018-Feb-24 01:00N 05°39' E 000°04'0 0.0
2018-Feb-24 00:30N 05°39' E 000°04'0 0.0
2018-Feb-24 00:00N 05°39' E 000°04'0 0.0
2018-Feb-23 23:30N 05°39' E 000°04'0 0.0
2018-Feb-23 23:01N 05°39' E 000°04'0 0.0
2018-Feb-23 22:31N 05°39' E 000°04'0 0.0
2018-Feb-23 21:59N 05°39' E 000°04'0 0.0
2018-Feb-23 21:30N 05°39' E 000°04'0 0.0
2018-Feb-23 21:01N 05°39' E 000°04'0 0.0
2018-Feb-23 20:31N 05°40' E 000°04'0 0.0
2018-Feb-23 20:01N 05°40' E 000°04'0 0.0
2018-Feb-23 19:30N 05°40' E 000°04'0 0.0
2018-Feb-23 19:00N 05°40' E 000°04'0 0.0
2018-Feb-23 18:31N 05°40' E 000°04'0 0.0
2018-Feb-23 18:00N 05°40' E 000°04'0 0.0
2018-Feb-23 17:31N 05°40' E 000°04'0 0.0
2018-Feb-23 17:01N 05°40' E 000°04'0 0.0
2018-Feb-23 16:30N 05°40' E 000°04'0 0.0
2018-Feb-23 16:00N 05°40' E 000°04'0 0.0
2018-Feb-23 15:30N 05°40' E 000°04'0 0.0
2018-Feb-23 15:00N 05°40' E 000°04'0 0.0
2018-Feb-23 14:30N 05°40' E 000°04'0 0.0
2018-Feb-23 14:00N 05°40' E 000°04'0 0.0
2018-Feb-23 13:30N 05°40' E 000°04'0 0.0
2018-Feb-23 13:00N 05°40' E 000°04'0 0.0
2018-Feb-23 12:31N 05°40' E 000°04'1 1.6
2018-Feb-23 12:01N 05°39' E 000°04'0 0.2
2018-Feb-23 11:21N 05°39' E 000°04'0 0.3
2018-Feb-23 11:00N 05°39' E 000°04'0 0.4
2018-Feb-23 10:31N 05°39' E 000°04'0 0.3
2018-Feb-23 10:01N 05°39' E 000°04'1 1.9
2018-Feb-23 09:30N 05°39' E 000°05'1 3.0
2018-Feb-23 09:01N 05°38' E 000°07'2 4.2
2018-Feb-23 08:30N 05°39' E 000°04'0 0.7
2018-Feb-23 08:00N 05°39' E 000°04'0 0.1
2018-Feb-23 07:31N 05°39' E 000°04'0 0.1
2018-Feb-23 07:00N 05°39' E 000°04'0 0.5
2018-Feb-23 06:30N 05°39' E 000°04'0 0.6
2018-Feb-23 06:00N 05°39' E 000°04'1 1.7
2018-Feb-23 05:30N 05°38' E 000°04'3 6.4
2018-Feb-23 05:01N 05°38' E 000°01'0 0.0
2018-Feb-23 04:31N 05°38' E 000°01'0 0.0
2018-Feb-23 03:59N 05°38' E 000°01'0 0.0
2018-Feb-23 03:31N 05°38' E 000°01'0 0.0
2018-Feb-23 03:01N 05°38' E 000°01'0 0.0
2018-Feb-23 02:29N 05°38' E 000°01'0 0.0
2018-Feb-23 02:01N 05°38' E 000°01'0 0.0
2018-Feb-23 01:31N 05°38' E 000°01'0 0.0
2018-Feb-23 00:56N 05°38' E 000°01'0 0.0
2018-Feb-23 00:30N 05°38' E 000°01'0 0.0
2018-Feb-23 00:01N 05°38' E 000°01'0 0.0
2018-Feb-22 23:30N 05°38' E 000°01'0 0.0
2018-Feb-22 23:00N 05°38' E 000°01'0 0.0
2018-Feb-22 22:31N 05°38' E 000°01'0 0.0
2018-Feb-22 22:01N 05°38' E 000°01'0 0.0
2018-Feb-22 21:30N 05°38' E 000°01'0 0.0
2018-Feb-22 21:00N 05°38' E 000°01'0 0.0
2018-Feb-22 20:30N 05°38' E 000°01'2 3.5
2018-Feb-22 20:00N 05°38' E 000°02'0 0.5
2018-Feb-22 19:30N 05°38' E 000°02'2 4.8
2018-Feb-22 19:00N 05°40' E 000°04'0 0.0
2018-Feb-22 18:30N 05°40' E 000°04'0 0.0
2018-Feb-22 18:01N 05°40' E 000°04'0 0.0
2018-Feb-22 17:31N 05°40' E 000°04'0 0.0
2018-Feb-22 17:00N 05°40' E 000°04'0 0.0
2018-Feb-22 16:30N 05°40' E 000°04'0 0.0
2018-Feb-22 16:01N 05°40' E 000°04'0 0.0
2018-Feb-22 15:31N 05°40' E 000°04'0 0.0
2018-Feb-22 14:58N 05°40' E 000°04'2 3.8
2018-Feb-22 14:30N 05°38' E 000°05'0 0.2
2018-Feb-22 14:01N 05°38' E 000°04'0 0.0
2018-Feb-22 13:30N 05°38' E 000°04'0 0.2
2018-Feb-22 12:58N 05°38' E 000°04'0 0.5
2018-Feb-22 12:30N 05°38' E 000°05'0 0.1
2018-Feb-22 12:01N 05°38' E 000°05'0 0.6
2018-Feb-22 11:31N 05°38' E 000°05'0 0.5
2018-Feb-22 11:01N 05°38' E 000°05'0 0.6
2018-Feb-22 10:30N 05°38' E 000°05'0 0.1
2018-Feb-22 10:00N 05°38' E 000°05'0 0.2
2018-Feb-22 09:31N 05°38' E 000°04'0 0.3
2018-Feb-22 09:01N 05°38' E 000°05'0 0.2
2018-Feb-22 08:25N 05°38' E 000°05'0 0.4
2018-Feb-22 07:59N 05°38' E 000°05'2 3.4
2018-Feb-22 07:30N 05°39' E 000°04'0 0.0
2018-Feb-22 07:00N 05°39' E 000°04'0 0.0
2018-Feb-22 06:30N 05°39' E 000°04'0 0.0
2018-Feb-22 06:01N 05°39' E 000°04'0 0.0
2018-Feb-22 05:31N 05°39' E 000°04'0 0.0
2018-Feb-22 05:00N 05°39' E 000°04'0 0.0
2018-Feb-22 04:31N 05°39' E 000°04'0 0.0
2018-Feb-22 04:00N 05°39' E 000°04'0 0.0
2018-Feb-22 03:31N 05°39' E 000°04'0 0.0
2018-Feb-22 03:00N 05°39' E 000°04'0 0.0
2018-Feb-22 02:30N 05°39' E 000°04'0 0.0
2018-Feb-22 02:00N 05°39' E 000°04'0 0.0
2018-Feb-22 01:31N 05°39' E 000°04'0 0.0
2018-Feb-22 01:00N 05°39' E 000°04'0 0.0
2018-Feb-22 00:31N 05°40' E 000°04'0 0.0
2018-Feb-22 00:00N 05°39' E 000°04'0 0.0
2018-Feb-21 23:30N 05°39' E 000°04'0 0.0
2018-Feb-21 23:01N 05°39' E 000°04'0 0.0
2018-Feb-21 22:30N 05°39' E 000°04'0 0.0
2018-Feb-21 22:00N 05°39' E 000°04'0 0.0
2018-Feb-21 21:31N 05°39' E 000°04'0 0.0
2018-Feb-21 21:01N 05°39' E 000°04'0 0.0
2018-Feb-21 20:31N 05°39' E 000°04'0 0.0
2018-Feb-21 20:00N 05°39' E 000°04'0 0.0
2018-Feb-21 19:30N 05°39' E 000°04'0 0.0
2018-Feb-21 19:01N 05°39' E 000°04'0 0.0
2018-Feb-21 18:31N 05°40' E 000°04'0 0.0
2018-Feb-21 18:00N 05°40' E 000°04'0 0.0
2018-Feb-21 17:30N 05°40' E 000°04'0 0.0
2018-Feb-21 17:01N 05°40' E 000°04'0 0.0
2018-Feb-21 16:31N 05°40' E 000°04'0 0.0
2018-Feb-21 16:00N 05°40' E 000°04'0 0.0
2018-Feb-21 15:30N 05°40' E 000°04'0 0.1
2018-Feb-21 15:00N 05°40' E 000°04'2 3.8
2018-Feb-21 14:30N 05°38' E 000°05'0 0.5
2018-Feb-21 14:00N 05°38' E 000°05'0 0.1
2018-Feb-21 13:31N 05°38' E 000°05'0 0.2
2018-Feb-21 13:00N 05°38' E 000°05'0 0.2
2018-Feb-21 12:30N 05°38' E 000°05'0 0.1
2018-Feb-21 12:00N 05°38' E 000°05'0 0.5
2018-Feb-21 11:31N 05°38' E 000°04'0 0.4
2018-Feb-21 10:58N 05°38' E 000°05'0 0.1
2018-Feb-21 10:28N 05°38' E 000°05'0 0.1
2018-Feb-21 10:00N 05°38' E 000°04'0 0.2
2018-Feb-21 09:30N 05°38' E 000°04'0 0.2
2018-Feb-21 09:01N 05°38' E 000°04'0 0.3
2018-Feb-21 08:30N 05°38' E 000°04'0 0.2
2018-Feb-21 07:57N 05°38' E 000°04'2 3.5
2018-Feb-21 07:30N 05°39' E 000°04'0 0.1
2018-Feb-21 07:00N 05°39' E 000°04'0 0.0
2018-Feb-21 06:30N 05°39' E 000°04'0 0.1
2018-Feb-21 05:50N 05°39' E 000°04'0 0.0
2018-Feb-21 05:30N 05°40' E 000°04'0 0.0
2018-Feb-21 05:00N 05°39' E 000°04'0 0.0
2018-Feb-21 04:27N 05°39' E 000°04'0 0.0
2018-Feb-21 03:29N 05°39' E 000°04'0 0.0
2018-Feb-21 02:58N 05°39' E 000°04'0 0.0
2018-Feb-21 02:30N 05°39' E 000°04'0 0.0
2018-Feb-21 02:00N 05°39' E 000°04'0 0.0
2018-Feb-21 01:30N 05°39' E 000°04'0 0.0
2018-Feb-21 01:01N 05°39' E 000°04'0 0.1
2018-Feb-21 00:30N 05°39' E 000°04'0 0.1
2018-Feb-21 00:00N 05°39' E 000°04'0 0.0
2018-Feb-20 23:30N 05°39' E 000°04'0 0.1
2018-Feb-20 23:00N 05°39' E 000°04'0 0.0
2018-Feb-20 22:30N 05°39' E 000°04'0 0.0
2018-Feb-20 22:00N 05°39' E 000°04'0 0.0
2018-Feb-20 21:30N 05°39' E 000°04'0 0.1
2018-Feb-20 21:01N 05°39' E 000°04'0 0.0
2018-Feb-20 20:31N 05°39' E 000°04'0 0.0
2018-Feb-20 19:59N 05°39' E 000°04'0 0.0
2018-Feb-20 19:30N 05°39' E 000°04'0 0.1
2018-Feb-20 18:58N 05°39' E 000°04'0 0.0
2018-Feb-20 18:31N 05°40' E 000°04'0 0.0
2018-Feb-20 18:01N 05°39' E 000°04'0 0.0
2018-Feb-20 17:30N 05°39' E 000°04'0 0.0
2018-Feb-20 17:00N 05°39' E 000°04'0 0.0
2018-Feb-20 16:25N 05°40' E 000°04'0 0.0
2018-Feb-20 15:58N 05°40' E 000°04'0 0.1
2018-Feb-20 15:18N 05°40' E 000°04'0 0.2
2018-Feb-20 14:58N 05°39' E 000°04'1 1.2
2018-Feb-20 14:30N 05°39' E 000°04'0 0.5
2018-Feb-20 14:01N 05°39' E 000°04'0 0.2
2018-Feb-20 13:30N 05°39' E 000°04'0 0.3
2018-Feb-20 13:01N 05°39' E 000°04'0 0.3
2018-Feb-20 12:29N 05°39' E 000°04'0 0.4
2018-Feb-20 12:00N 05°39' E 000°04'0 0.0
2018-Feb-20 11:30N 05°39' E 000°04'0 0.0
2018-Feb-20 10:59N 05°39' E 000°04'0 0.4
2018-Feb-20 10:28N 05°39' E 000°04'0 0.4
2018-Feb-20 09:59N 05°39' E 000°04'0 0.5
2018-Feb-20 09:30N 05°39' E 000°04'1 2.0
2018-Feb-20 09:00N 05°39' E 000°05'0 0.8
2018-Feb-20 08:29N 05°38' E 000°05'1 2.2
2018-Feb-20 08:00N 05°39' E 000°04'0 0.4
2018-Feb-20 07:30N 05°39' E 000°04'0 0.2
2018-Feb-20 06:55N 05°39' E 000°04'0 0.8
2018-Feb-20 06:31N 05°39' E 000°04'1 1.1
2018-Feb-20 06:00N 05°39' E 000°04'0 0.0
2018-Feb-20 05:30N 05°40' E 000°04'0 0.0
2018-Feb-20 05:00N 05°40' E 000°04'0 0.1
2018-Feb-20 04:30N 05°39' E 000°04'0 0.0
2018-Feb-20 04:01N 05°39' E 000°04'0 0.0
2018-Feb-20 03:31N 05°39' E 000°04'0 0.1
2018-Feb-20 03:01N 05°40' E 000°04'0 0.0
2018-Feb-20 02:29N 05°40' E 000°04'0 0.0
2018-Feb-20 02:00N 05°40' E 000°04'0 0.0
2018-Feb-20 01:30N 05°40' E 000°04'0 0.0
2018-Feb-20 01:00N 05°40' E 000°04'0 0.0
2018-Feb-20 00:29N 05°40' E 000°04'0 0.0
2018-Feb-19 23:57N 05°40' E 000°04'0 0.0
2018-Feb-19 23:31N 05°40' E 000°04'0 0.0
2018-Feb-19 22:59N 05°40' E 000°04'0 0.0
2018-Feb-19 22:30N 05°40' E 000°04'0 0.0
2018-Feb-19 22:01N 05°40' E 000°04'0 0.0
2018-Feb-19 21:28N 05°40' E 000°04'0 0.0
2018-Feb-19 21:00N 05°40' E 000°04'0 0.0
2018-Feb-19 20:30N 05°40' E 000°04'0 0.0
2018-Feb-19 19:59N 05°40' E 000°04'0 0.0
2018-Feb-19 19:31N 05°40' E 000°04'0 0.0
2018-Feb-19 19:00N 05°40' E 000°04'0 0.0
2018-Feb-19 18:30N 05°40' E 000°04'0 0.0
2018-Feb-19 18:00N 05°40' E 000°04'0 0.0
2018-Feb-19 17:30N 05°40' E 000°04'0 0.0
2018-Feb-19 17:00N 05°40' E 000°04'0 0.0
2018-Feb-19 16:30N 05°40' E 000°04'0 0.0
2018-Feb-19 16:00N 05°40' E 000°04'2 3.1
2018-Feb-19 15:27N 05°38' E 000°04'0 0.4
2018-Feb-19 15:01N 05°38' E 000°05'0 0.6
2018-Feb-19 14:31N 05°38' E 000°04'0 0.6
2018-Feb-19 14:00N 05°38' E 000°05'0 0.1
2018-Feb-19 13:20N 05°38' E 000°05'0 0.3
2018-Feb-19 13:00N 05°38' E 000°05'0 0.1
2018-Feb-19 12:30N 05°38' E 000°05'0 0.9
2018-Feb-19 11:59N 05°38' E 000°05'0 0.6
2018-Feb-19 11:31N 05°38' E 000°05'0 0.2
2018-Feb-19 10:58N 05°38' E 000°05'0 0.5
2018-Feb-19 10:30N 05°38' E 000°05'0 0.1
2018-Feb-19 10:01N 05°38' E 000°05'0 0.7
2018-Feb-19 09:30N 05°38' E 000°05'1 1.7
2018-Feb-19 09:01N 05°39' E 000°04'0 1.0
2018-Feb-19 08:31N 05°39' E 000°04'0 0.0
2018-Feb-19 08:00N 05°39' E 000°04'0 0.0
2018-Feb-19 07:30N 05°39' E 000°04'0 0.0
2018-Feb-19 07:00N 05°39' E 000°04'0 0.0
2018-Feb-19 06:30N 05°39' E 000°04'0 0.0
2018-Feb-19 06:00N 05°39' E 000°04'0 0.0
2018-Feb-19 05:30N 05°39' E 000°04'0 0.0
2018-Feb-19 05:00N 05°39' E 000°04'0 0.0
2018-Feb-19 04:30N 05°39' E 000°04'0 0.0
2018-Feb-19 04:00N 05°39' E 000°04'0 0.0
2018-Feb-19 03:30N 05°39' E 000°04'0 0.0
2018-Feb-19 02:57N 05°39' E 000°04'0 0.0
2018-Feb-19 02:30N 05°39' E 000°04'0 0.0
2018-Feb-19 02:00N 05°39' E 000°04'0 0.0
2018-Feb-19 01:30N 05°39' E 000°04'0 0.0
2018-Feb-19 01:00N 05°39' E 000°04'0 0.0
2018-Feb-19 00:30N 05°40' E 000°04'0 0.0
2018-Feb-19 00:00N 05°39' E 000°04'0 0.0
2018-Feb-18 23:30N 05°39' E 000°04'0 0.0
2018-Feb-18 23:00N 05°39' E 000°04'0 0.0
2018-Feb-18 22:30N 05°39' E 000°04'0 0.0
2018-Feb-18 22:00N 05°39' E 000°04'0 0.0
2018-Feb-18 21:30N 05°39' E 000°04'0 0.0
2018-Feb-18 21:00N 05°39' E 000°04'0 0.0
2018-Feb-18 20:30N 05°40' E 000°04'0 0.0
2018-Feb-18 20:00N 05°39' E 000°04'0 0.0
2018-Feb-18 19:29N 05°39' E 000°04'0 0.0
2018-Feb-18 19:00N 05°39' E 000°04'0 0.0
2018-Feb-18 18:30N 05°39' E 000°04'0 0.0
2018-Feb-18 18:00N 05°39' E 000°04'0 0.0
2018-Feb-18 17:30N 05°39' E 000°04'0 0.0
2018-Feb-18 17:00N 05°39' E 000°04'0 0.0
2018-Feb-18 16:30N 05°40' E 000°04'0 0.0
2018-Feb-18 16:00N 05°40' E 000°04'0 0.0
2018-Feb-18 15:30N 05°40' E 000°04'0 0.0
2018-Feb-18 15:00N 05°40' E 000°04'0 0.0
2018-Feb-18 14:30N 05°40' E 000°04'0 0.0
2018-Feb-18 14:00N 05°39' E 000°04'2 3.5
2018-Feb-18 13:30N 05°38' E 000°04'0 1.0
2018-Feb-18 13:00N 05°38' E 000°05'0 0.8
2018-Feb-18 12:30N 05°38' E 000°05'2 3.3
2018-Feb-18 11:59N 05°40' E 000°04'0 0.0
2018-Feb-18 11:30N 05°40' E 000°04'0 0.0
2018-Feb-18 11:00N 05°39' E 000°04'0 0.0
2018-Feb-18 10:30N 05°39' E 000°04'1 1.2
2018-Feb-18 10:00N 05°39' E 000°05'1 0.9
2018-Feb-18 08:53N 05°38' E 000°05'0 0.4
2018-Feb-18 08:30N 05°38' E 000°05'0 0.1
2018-Feb-18 08:00N 05°38' E 000°05'2 3.0
2018-Feb-18 07:30N 05°40' E 000°04'0 0.0
2018-Feb-18 07:00N 05°39' E 000°04'0 0.0
2018-Feb-18 06:30N 05°39' E 000°04'0 0.0
2018-Feb-18 06:00N 05°39' E 000°04'0 0.0
2018-Feb-18 05:30N 05°40' E 000°04'0 0.0
2018-Feb-18 05:00N 05°39' E 000°04'0 0.0
2018-Feb-18 04:30N 05°39' E 000°04'0 0.0
2018-Feb-18 04:00N 05°40' E 000°04'0 0.0
2018-Feb-18 03:30N 05°39' E 000°04'0 0.0
2018-Feb-18 02:59N 05°39' E 000°04'0 0.0
2018-Feb-18 02:30N 05°39' E 000°04'0 0.0
2018-Feb-18 02:00N 05°39' E 000°04'0 0.0
2018-Feb-18 01:29N 05°39' E 000°04'0 0.0
2018-Feb-18 00:59N 05°39' E 000°04'0 0.0
2018-Feb-18 00:30N 05°39' E 000°04'0 0.0
2018-Feb-18 00:00N 05°39' E 000°04'0 0.0
2018-Feb-17 23:29N 05°39' E 000°04'0 0.0
2018-Feb-17 23:00N 05°39' E 000°04'0 0.0
2018-Feb-17 22:30N 05°39' E 000°04'0 0.0
2018-Feb-17 22:00N 05°39' E 000°04'0 0.0
2018-Feb-17 21:30N 05°40' E 000°04'0 0.0
2018-Feb-17 20:59N 05°39' E 000°04'0 0.0
2018-Feb-17 20:30N 05°39' E 000°04'0 0.0
2018-Feb-17 20:00N 05°39' E 000°04'0 0.0
2018-Feb-17 19:30N 05°39' E 000°04'0 0.0
2018-Feb-17 19:00N 05°39' E 000°04'0 0.0
2018-Feb-17 18:30N 05°39' E 000°04'0 0.0
2018-Feb-17 18:00N 05°39' E 000°04'0 0.0
2018-Feb-17 17:30N 05°39' E 000°04'0 0.0
2018-Feb-17 17:00N 05°40' E 000°04'0 0.0
2018-Feb-17 16:30N 05°40' E 000°04'0 0.0
2018-Feb-17 15:59N 05°40' E 000°04'0 0.0
2018-Feb-17 15:30N 05°40' E 000°04'0 0.0
2018-Feb-17 15:00N 05°40' E 000°04'0 0.0
2018-Feb-17 14:29N 05°40' E 000°04'0 0.0
2018-Feb-17 14:00N 05°40' E 000°04'0 0.0
2018-Feb-17 13:30N 05°40' E 000°04'1 1.1
2018-Feb-17 12:59N 05°39' E 000°05'0 0.9
2018-Feb-17 12:30N 05°39' E 000°04'0 0.4
2018-Feb-17 12:01N 05°39' E 000°04'0 0.3
2018-Feb-17 11:30N 05°39' E 000°04'0 0.4
2018-Feb-17 11:01N 05°39' E 000°04'0 0.7
2018-Feb-17 10:30N 05°39' E 000°04'0 0.1
2018-Feb-17 09:58N 05°39' E 000°04'0 0.4
2018-Feb-17 09:30N 05°39' E 000°04'0 0.0
2018-Feb-17 09:00N 05°39' E 000°04'0 0.6
2018-Feb-17 08:30N 05°39' E 000°04'0 0.4
2018-Feb-17 08:00N 05°39' E 000°04'1 2.6
2018-Feb-17 07:31N 05°38' E 000°05'1 1.9
2018-Feb-17 07:01N 05°38' E 000°05'1 1.6
2018-Feb-17 06:31N 05°38' E 000°05'1 2.6
2018-Feb-17 06:00N 05°39' E 000°04'0 0.0
2018-Feb-17 05:30N 05°39' E 000°04'0 0.0
2018-Feb-17 05:00N 05°39' E 000°04'0 0.0
2018-Feb-17 04:30N 05°39' E 000°04'0 0.0
2018-Feb-17 04:00N 05°39' E 000°04'0 0.0
2018-Feb-17 03:30N 05°39' E 000°04'0 0.0
2018-Feb-17 02:58N 05°39' E 000°04'0 0.0
2018-Feb-17 02:29N 05°39' E 000°04'0 0.0
2018-Feb-17 01:59N 05°39' E 000°04'0 0.0
2018-Feb-17 01:30N 05°39' E 000°04'0 0.0
2018-Feb-17 01:00N 05°39' E 000°04'0 0.0
2018-Feb-17 00:30N 05°39' E 000°04'0 0.0
2018-Feb-17 00:00N 05°39' E 000°04'0 0.0
2018-Feb-16 23:30N 05°39' E 000°04'0 0.0
2018-Feb-16 23:00N 05°39' E 000°04'0 0.0
2018-Feb-16 22:30N 05°39' E 000°04'0 0.0
2018-Feb-16 22:00N 05°39' E 000°04'0 0.0
2018-Feb-16 21:30N 05°39' E 000°04'0 0.0
2018-Feb-16 21:00N 05°39' E 000°04'0 0.0
2018-Feb-16 20:29N 05°39' E 000°04'0 0.0
2018-Feb-16 20:00N 05°39' E 000°04'0 0.0
2018-Feb-16 19:30N 05°39' E 000°04'0 0.0
2018-Feb-16 19:00N 05°39' E 000°04'0 0.0
2018-Feb-16 18:30N 05°39' E 000°04'0 0.0
2018-Feb-16 18:00N 05°39' E 000°04'0 0.0
2018-Feb-16 17:30N 05°39' E 000°04'0 0.0
2018-Feb-16 17:00N 05°39' E 000°04'0 0.0
2018-Feb-16 16:30N 05°39' E 000°04'0 0.0
2018-Feb-16 16:00N 05°39' E 000°04'0 0.0
2018-Feb-16 15:30N 05°40' E 000°04'0 0.0
2018-Feb-16 15:00N 05°40' E 000°04'1 1.3
2018-Feb-16 14:29N 05°39' E 000°04'0 0.5
2018-Feb-16 14:01N 05°39' E 000°04'0 0.1
2018-Feb-16 13:30N 05°39' E 000°04'0 0.4
2018-Feb-16 13:01N 05°39' E 000°04'0 0.6
2018-Feb-16 12:30N 05°39' E 000°04'0 0.2
2018-Feb-16 12:00N 05°39' E 000°04'0 1.0
2018-Feb-16 11:30N 05°39' E 000°05'1 1.2
2018-Feb-16 11:00N 05°39' E 000°04'0 0.5
2018-Feb-16 10:30N 05°39' E 000°04'1 2.4
2018-Feb-16 09:55N 05°38' E 000°05'0 0.4
2018-Feb-16 09:30N 05°38' E 000°05'0 0.4
2018-Feb-16 09:00N 05°38' E 000°04'0 0.1
2018-Feb-16 08:30N 05°38' E 000°05'0 0.5
2018-Feb-16 08:00N 05°38' E 000°05'0 0.3
2018-Feb-16 07:30N 05°38' E 000°05'2 3.1
2018-Feb-16 07:01N 05°39' E 000°04'0 0.0
2018-Feb-16 06:30N 05°39' E 000°04'0 0.0
2018-Feb-16 05:59N 05°39' E 000°04'0 0.0
2018-Feb-16 05:30N 05°39' E 000°04'0 0.0
2018-Feb-16 05:00N 05°39' E 000°04'0 0.0
2018-Feb-16 04:30N 05°39' E 000°04'0 0.0
2018-Feb-16 04:00N 05°39' E 000°04'0 0.0
2018-Feb-16 03:29N 05°39' E 000°04'0 0.0
2018-Feb-16 03:00N 05°39' E 000°04'0 0.0
2018-Feb-16 02:30N 05°39' E 000°04'0 0.0
2018-Feb-16 02:00N 05°39' E 000°04'0 0.0
2018-Feb-16 01:30N 05°39' E 000°04'0 0.0
2018-Feb-16 01:00N 05°39' E 000°04'0 0.0
2018-Feb-16 00:30N 05°39' E 000°04'0 0.0
2018-Feb-16 00:00N 05°39' E 000°04'0 0.0
2018-Feb-15 23:30N 05°39' E 000°04'0 0.0
2018-Feb-15 23:00N 05°39' E 000°04'0 0.0
2018-Feb-15 22:30N 05°39' E 000°04'0 0.0
2018-Feb-15 22:00N 05°40' E 000°04'0 0.0
2018-Feb-15 21:30N 05°40' E 000°04'0 0.0
2018-Feb-15 21:00N 05°40' E 000°04'0 0.0
2018-Feb-15 20:30N 05°40' E 000°04'0 0.0
2018-Feb-15 20:00N 05°39' E 000°04'0 0.0
2018-Feb-15 19:30N 05°40' E 000°04'0 0.0
2018-Feb-15 19:00N 05°40' E 000°04'0 0.0
2018-Feb-15 18:30N 05°39' E 000°04'0 0.0
2018-Feb-15 18:00N 05°39' E 000°04'0 0.0
2018-Feb-15 17:30N 05°39' E 000°04'0 0.0
2018-Feb-15 16:58N 05°40' E 000°04'0 0.0
2018-Feb-15 16:30N 05°40' E 000°04'0 0.0
2018-Feb-15 16:00N 05°40' E 000°04'0 0.0
2018-Feb-15 15:30N 05°40' E 000°04'0 0.0
2018-Feb-15 15:00N 05°40' E 000°04'0 0.0
2018-Feb-15 14:30N 05°40' E 000°04'0 0.0
2018-Feb-15 13:59N 05°40' E 000°04'0 0.0
2018-Feb-15 13:30N 05°40' E 000°04'1 1.3
2018-Feb-15 13:00N 05°39' E 000°04'0 0.2
2018-Feb-15 12:27N 05°39' E 000°04'0 0.0
2018-Feb-15 11:59N 05°39' E 000°04'0 0.2
2018-Feb-15 11:31N 05°39' E 000°04'0 0.4
2018-Feb-15 11:00N 05°39' E 000°04'0 0.2
2018-Feb-15 10:31N 05°39' E 000°04'0 0.1
2018-Feb-15 09:59N 05°39' E 000°04'0 0.5
2018-Feb-15 09:31N 05°39' E 000°04'0 0.3
2018-Feb-15 09:01N 05°39' E 000°04'2 3.5
2018-Feb-15 08:28N 05°38' E 000°06'1 1.8
2018-Feb-15 07:59N 05°38' E 000°06'2 4.7
2018-Feb-15 07:30N 05°39' E 000°04'0 0.0
2018-Feb-15 07:00N 05°39' E 000°04'0 0.0
2018-Feb-15 06:30N 05°39' E 000°04'0 0.0
2018-Feb-15 06:00N 05°39' E 000°04'0 0.0
2018-Feb-15 05:30N 05°39' E 000°04'0 0.0
2018-Feb-15 05:00N 05°39' E 000°04'0 0.0
2018-Feb-15 04:30N 05°39' E 000°04'0 0.0
2018-Feb-15 03:58N 05°39' E 000°04'0 0.0
2018-Feb-15 03:30N 05°39' E 000°04'0 0.0
2018-Feb-15 03:00N 05°40' E 000°04'0 0.0
2018-Feb-15 02:30N 05°40' E 000°04'0 0.0
2018-Feb-15 02:00N 05°40' E 000°04'0 0.0
2018-Feb-15 01:30N 05°40' E 000°04'0 0.0
2018-Feb-15 01:00N 05°40' E 000°04'0 0.0
2018-Feb-15 00:30N 05°40' E 000°04'0 0.0
2018-Feb-15 00:00N 05°40' E 000°04'0 0.0
2018-Feb-14 23:30N 05°40' E 000°04'0 0.0
2018-Feb-14 23:00N 05°40' E 000°04'0 0.0
2018-Feb-14 22:30N 05°40' E 000°04'0 0.0
2018-Feb-14 22:00N 05°40' E 000°04'0 0.0
2018-Feb-14 21:30N 05°40' E 000°04'0 0.0
2018-Feb-14 21:00N 05°40' E 000°04'0 0.0
2018-Feb-14 20:30N 05°40' E 000°04'0 0.0
2018-Feb-14 19:58N 05°40' E 000°04'0 0.0
2018-Feb-14 19:30N 05°40' E 000°04'0 0.0
2018-Feb-14 18:59N 05°40' E 000°04'0 0.0
2018-Feb-14 18:30N 05°40' E 000°04'0 0.0
2018-Feb-14 18:00N 05°40' E 000°04'0 0.0
2018-Feb-14 17:30N 05°40' E 000°04'0 0.0
2018-Feb-14 17:00N 05°40' E 000°04'0 0.0
2018-Feb-14 16:29N 05°40' E 000°04'0 0.0
2018-Feb-14 16:00N 05°40' E 000°04'0 0.0
2018-Feb-14 15:31N 05°40' E 000°04'0 0.0
2018-Feb-14 15:00N 05°40' E 000°04'0 0.0
2018-Feb-14 14:30N 05°40' E 000°04'0 0.0
2018-Feb-14 14:00N 05°40' E 000°04'0 0.0
2018-Feb-14 13:30N 05°40' E 000°04'0 0.0
2018-Feb-14 13:00N 05°40' E 000°04'0 0.0
2018-Feb-14 12:30N 05°40' E 000°04'0 0.0
2018-Feb-14 12:00N 05°40' E 000°04'0 0.0
2018-Feb-14 11:30N 05°40' E 000°04'0 0.0
2018-Feb-14 11:00N 05°40' E 000°04'0 0.1
2018-Feb-14 10:29N 05°39' E 000°04'1 1.4
2018-Feb-14 10:00N 05°39' E 000°04'0 0.1
2018-Feb-14 09:30N 05°39' E 000°04'0 0.1
2018-Feb-14 09:00N 05°39' E 000°04'0 0.1
2018-Feb-14 08:30N 05°39' E 000°04'  
Track history (hours):
 
Tides and Currents Weather Stations Pressure Air Temp Water Temp Dewpoint Dewpoint Depression Visibility Wind Speed Wind Dir Waves Ship Positions

Seaways-10

Last reported at 2018-Feb-24 08:00 UTC. Time now 2018-Feb-24 08:16 UTC.
Position N 05°39' E 000°04'.

Length 45 m; draft 4.3 m.

Type: Tug. MMSI: 375157000.

Date/timePositionNaut miles runAvg speedWind from/ knotsBaromVisibWave heightAir tempDewpointWater temp
2018-Feb-24 08:00N 05°39' E 000°04'0 0.0
2018-Feb-24 07:30N 05°39' E 000°04'0 0.0
2018-Feb-24 07:00N 05°39' E 000°04'0 0.0
2018-Feb-24 06:31N 05°39' E 000°04'0 0.0
2018-Feb-24 06:01N 05°39' E 000°04'0 0.0
2018-Feb-24 05:31N 05°39' E 000°04'0 0.0
2018-Feb-24 05:01N 05°39' E 000°04'0 0.0
2018-Feb-24 04:31N 05°39' E 000°04'0 0.0
2018-Feb-24 04:01N 05°39' E 000°04'0 0.0
2018-Feb-24 03:30N 05°39' E 000°04'0 0.0
2018-Feb-24 02:58N 05°39' E 000°04'0 0.0
2018-Feb-24 02:30N 05°39' E 000°04'0 0.0
2018-Feb-24 02:00N 05°39' E 000°04'0 0.0
2018-Feb-24 01:30N 05°39' E 000°04'0 0.0
2018-Feb-24 01:00N 05°39' E 000°04'0 0.0
2018-Feb-24 00:30N 05°39' E 000°04'0 0.0
2018-Feb-24 00:00N 05°39' E 000°04'0 0.0
2018-Feb-23 23:30N 05°39' E 000°04'0 0.0
2018-Feb-23 23:01N 05°39' E 000°04'0 0.0
2018-Feb-23 22:31N 05°39' E 000°04'0 0.0
2018-Feb-23 21:59N 05°39' E 000°04'0 0.0
2018-Feb-23 21:30N 05°39' E 000°04'0 0.0
2018-Feb-23 21:01N 05°39' E 000°04'0 0.0
2018-Feb-23 20:31N 05°40' E 000°04'0 0.0
2018-Feb-23 20:01N 05°40' E 000°04'0 0.0
2018-Feb-23 19:30N 05°40' E 000°04'0 0.0
2018-Feb-23 19:00N 05°40' E 000°04'0 0.0
2018-Feb-23 18:31N 05°40' E 000°04'0 0.0
2018-Feb-23 18:00N 05°40' E 000°04'0 0.0
2018-Feb-23 17:31N 05°40' E 000°04'0 0.0
2018-Feb-23 17:01N 05°40' E 000°04'0 0.0
2018-Feb-23 16:30N 05°40' E 000°04'0 0.0
2018-Feb-23 16:00N 05°40' E 000°04'0 0.0
2018-Feb-23 15:30N 05°40' E 000°04'0 0.0
2018-Feb-23 15:00N 05°40' E 000°04'0 0.0
2018-Feb-23 14:30N 05°40' E 000°04'0 0.0
2018-Feb-23 14:00N 05°40' E 000°04'0 0.0
2018-Feb-23 13:30N 05°40' E 000°04'0 0.0
2018-Feb-23 13:00N 05°40' E 000°04'0 0.0
2018-Feb-23 12:31N 05°40' E 000°04'1 1.6
2018-Feb-23 12:01N 05°39' E 000°04'0 0.2
2018-Feb-23 11:21N 05°39' E 000°04'0 0.3
2018-Feb-23 11:00N 05°39' E 000°04'0 0.4
2018-Feb-23 10:31N 05°39' E 000°04'0 0.3
2018-Feb-23 10:01N 05°39' E 000°04'1 1.9
2018-Feb-23 09:30N 05°39' E 000°05'1 3.0
2018-Feb-23 09:01N 05°38' E 000°07'2 4.2
2018-Feb-23 08:30N 05°39' E 000°04'0 0.7
2018-Feb-23 08:00N 05°39' E 000°04'0 0.1
2018-Feb-23 07:31N 05°39' E 000°04'0 0.1
2018-Feb-23 07:00N 05°39' E 000°04'0 0.5
2018-Feb-23 06:30N 05°39' E 000°04'0 0.6
2018-Feb-23 06:00N 05°39' E 000°04'1 1.7
2018-Feb-23 05:30N 05°38' E 000°04'3 6.4
2018-Feb-23 05:01N 05°38' E 000°01'0 0.0
2018-Feb-23 04:31N 05°38' E 000°01'0 0.0
2018-Feb-23 03:59N 05°38' E 000°01'0 0.0
2018-Feb-23 03:31N 05°38' E 000°01'0 0.0
2018-Feb-23 03:01N 05°38' E 000°01'0 0.0
2018-Feb-23 02:29N 05°38' E 000°01'0 0.0
2018-Feb-23 02:01N 05°38' E 000°01'0 0.0
2018-Feb-23 01:31N 05°38' E 000°01'0 0.0
2018-Feb-23 00:56N 05°38' E 000°01'0 0.0
2018-Feb-23 00:30N 05°38' E 000°01'0 0.0
2018-Feb-23 00:01N 05°38' E 000°01'0 0.0
2018-Feb-22 23:30N 05°38' E 000°01'0 0.0
2018-Feb-22 23:00N 05°38' E 000°01'0 0.0
2018-Feb-22 22:31N 05°38' E 000°01'0 0.0
2018-Feb-22 22:01N 05°38' E 000°01'0 0.0
2018-Feb-22 21:30N 05°38' E 000°01'0 0.0
2018-Feb-22 21:00N 05°38' E 000°01'0 0.0
2018-Feb-22 20:30N 05°38' E 000°01'2 3.5
2018-Feb-22 20:00N 05°38' E 000°02'0 0.5
2018-Feb-22 19:30N 05°38' E 000°02'2 4.8
2018-Feb-22 19:00N 05°40' E 000°04'0 0.0
2018-Feb-22 18:30N 05°40' E 000°04'0 0.0
2018-Feb-22 18:01N 05°40' E 000°04'0 0.0
2018-Feb-22 17:31N 05°40' E 000°04'0 0.0
2018-Feb-22 17:00N 05°40' E 000°04'0 0.0
2018-Feb-22 16:30N 05°40' E 000°04'0 0.0
2018-Feb-22 16:01N 05°40' E 000°04'0 0.0
2018-Feb-22 15:31N 05°40' E 000°04'0 0.0
2018-Feb-22 14:58N 05°40' E 000°04'2 3.8
2018-Feb-22 14:30N 05°38' E 000°05'0 0.2
2018-Feb-22 14:01N 05°38' E 000°04'0 0.0
2018-Feb-22 13:30N 05°38' E 000°04'0 0.2
2018-Feb-22 12:58N 05°38' E 000°04'0 0.5
2018-Feb-22 12:30N 05°38' E 000°05'0 0.1
2018-Feb-22 12:01N 05°38' E 000°05'0 0.6
2018-Feb-22 11:31N 05°38' E 000°05'0 0.5
2018-Feb-22 11:01N 05°38' E 000°05'0 0.6
2018-Feb-22 10:30N 05°38' E 000°05'0 0.1
2018-Feb-22 10:00N 05°38' E 000°05'0 0.2
2018-Feb-22 09:31N 05°38' E 000°04'0 0.3
2018-Feb-22 09:01N 05°38' E 000°05'0 0.2
2018-Feb-22 08:25N 05°38' E 000°05'0 0.4
2018-Feb-22 07:59N 05°38' E 000°05'2 3.4
2018-Feb-22 07:30N 05°39' E 000°04'0 0.0
2018-Feb-22 07:00N 05°39' E 000°04'0 0.0
2018-Feb-22 06:30N 05°39' E 000°04'0 0.0
2018-Feb-22 06:01N 05°39' E 000°04'0 0.0
2018-Feb-22 05:31N 05°39' E 000°04'0 0.0
2018-Feb-22 05:00N 05°39' E 000°04'0 0.0
2018-Feb-22 04:31N 05°39' E 000°04'0 0.0
2018-Feb-22 04:00N 05°39' E 000°04'0 0.0
2018-Feb-22 03:31N 05°39' E 000°04'0 0.0
2018-Feb-22 03:00N 05°39' E 000°04'0 0.0
2018-Feb-22 02:30N 05°39' E 000°04'0 0.0
2018-Feb-22 02:00N 05°39' E 000°04'0 0.0
2018-Feb-22 01:31N 05°39' E 000°04'0 0.0
2018-Feb-22 01:00N 05°39' E 000°04'0 0.0
2018-Feb-22 00:31N 05°40' E 000°04'0 0.0
2018-Feb-22 00:00N 05°39' E 000°04'0 0.0
2018-Feb-21 23:30N 05°39' E 000°04'0 0.0
2018-Feb-21 23:01N 05°39' E 000°04'0 0.0
2018-Feb-21 22:30N 05°39' E 000°04'0 0.0
2018-Feb-21 22:00N 05°39' E 000°04'0 0.0
2018-Feb-21 21:31N 05°39' E 000°04'0 0.0
2018-Feb-21 21:01N 05°39' E 000°04'0 0.0
2018-Feb-21 20:31N 05°39' E 000°04'0 0.0
2018-Feb-21 20:00N 05°39' E 000°04'0 0.0
2018-Feb-21 19:30N 05°39' E 000°04'0 0.0
2018-Feb-21 19:01N 05°39' E 000°04'0 0.0
2018-Feb-21 18:31N 05°40' E 000°04'0 0.0
2018-Feb-21 18:00N 05°40' E 000°04'0 0.0
2018-Feb-21 17:30N 05°40' E 000°04'0 0.0
2018-Feb-21 17:01N 05°40' E 000°04'0 0.0
2018-Feb-21 16:31N 05°40' E 000°04'0 0.0
2018-Feb-21 16:00N 05°40' E 000°04'0 0.0
2018-Feb-21 15:30N 05°40' E 000°04'0 0.1
2018-Feb-21 15:00N 05°40' E 000°04'2 3.8
2018-Feb-21 14:30N 05°38' E 000°05'0 0.5
2018-Feb-21 14:00N 05°38' E 000°05'0 0.1
2018-Feb-21 13:31N 05°38' E 000°05'0 0.2
2018-Feb-21 13:00N 05°38' E 000°05'0 0.2
2018-Feb-21 12:30N 05°38' E 000°05'0 0.1
2018-Feb-21 12:00N 05°38' E 000°05'0 0.5
2018-Feb-21 11:31N 05°38' E 000°04'0 0.4
2018-Feb-21 10:58N 05°38' E 000°05'0 0.1
2018-Feb-21 10:28N 05°38' E 000°05'0 0.1
2018-Feb-21 10:00N 05°38' E 000°04'0 0.2
2018-Feb-21 09:30N 05°38' E 000°04'0 0.2
2018-Feb-21 09:01N 05°38' E 000°04'0 0.3
2018-Feb-21 08:30N 05°38' E 000°04'0 0.2
2018-Feb-21 07:57N 05°38' E 000°04'2 3.5
2018-Feb-21 07:30N 05°39' E 000°04'0 0.1
2018-Feb-21 07:00N 05°39' E 000°04'0 0.0
2018-Feb-21 06:30N 05°39' E 000°04'0 0.1
2018-Feb-21 05:50N 05°39' E 000°04'0 0.0
2018-Feb-21 05:30N 05°40' E 000°04'0 0.0
2018-Feb-21 05:00N 05°39' E 000°04'0 0.0
2018-Feb-21 04:27N 05°39' E 000°04'0 0.0
2018-Feb-21 03:29N 05°39' E 000°04'0 0.0
2018-Feb-21 02:58N 05°39' E 000°04'0 0.0
2018-Feb-21 02:30N 05°39' E 000°04'0 0.0
2018-Feb-21 02:00N 05°39' E 000°04'0 0.0
2018-Feb-21 01:30N 05°39' E 000°04'0 0.0
2018-Feb-21 01:01N 05°39' E 000°04'0 0.1
2018-Feb-21 00:30N 05°39' E 000°04'0 0.1
2018-Feb-21 00:00N 05°39' E 000°04'0 0.0
2018-Feb-20 23:30N 05°39' E 000°04'0 0.1
2018-Feb-20 23:00N 05°39' E 000°04'0 0.0
2018-Feb-20 22:30N 05°39' E 000°04'0 0.0
2018-Feb-20 22:00N 05°39' E 000°04'0 0.0
2018-Feb-20 21:30N 05°39' E 000°04'0 0.1
2018-Feb-20 21:01N 05°39' E 000°04'0 0.0
2018-Feb-20 20:31N 05°39' E 000°04'0 0.0
2018-Feb-20 19:59N 05°39' E 000°04'0 0.0
2018-Feb-20 19:30N 05°39' E 000°04'0 0.1
2018-Feb-20 18:58N 05°39' E 000°04'0 0.0
2018-Feb-20 18:31N 05°40' E 000°04'0 0.0
2018-Feb-20 18:01N 05°39' E 000°04'0 0.0
2018-Feb-20 17:30N 05°39' E 000°04'0 0.0
2018-Feb-20 17:00N 05°39' E 000°04'0 0.0
2018-Feb-20 16:25N 05°40' E 000°04'0 0.0
2018-Feb-20 15:58N 05°40' E 000°04'0 0.1
2018-Feb-20 15:18N 05°40' E 000°04'0 0.2
2018-Feb-20 14:58N 05°39' E 000°04'1 1.2
2018-Feb-20 14:30N 05°39' E 000°04'0 0.5
2018-Feb-20 14:01N 05°39' E 000°04'0 0.2
2018-Feb-20 13:30N 05°39' E 000°04'0 0.3
2018-Feb-20 13:01N 05°39' E 000°04'0 0.3
2018-Feb-20 12:29N 05°39' E 000°04'0 0.4
2018-Feb-20 12:00N 05°39' E 000°04'0 0.0
2018-Feb-20 11:30N 05°39' E 000°04'0 0.0
2018-Feb-20 10:59N 05°39' E 000°04'0 0.4
2018-Feb-20 10:28N 05°39' E 000°04'0 0.4
2018-Feb-20 09:59N 05°39' E 000°04'0 0.5
2018-Feb-20 09:30N 05°39' E 000°04'1 2.0
2018-Feb-20 09:00N 05°39' E 000°05'0 0.8
2018-Feb-20 08:29N 05°38' E 000°05'1 2.2
2018-Feb-20 08:00N 05°39' E 000°04'0 0.4
2018-Feb-20 07:30N 05°39' E 000°04'0 0.2
2018-Feb-20 06:55N 05°39' E 000°04'0 0.8
2018-Feb-20 06:31N 05°39' E 000°04'1 1.1
2018-Feb-20 06:00N 05°39' E 000°04'0 0.0
2018-Feb-20 05:30N 05°40' E 000°04'0 0.0
2018-Feb-20 05:00N 05°40' E 000°04'0 0.1
2018-Feb-20 04:30N 05°39' E 000°04'0 0.0
2018-Feb-20 04:01N 05°39' E 000°04'0 0.0
2018-Feb-20 03:31N 05°39' E 000°04'0 0.1
2018-Feb-20 03:01N 05°40' E 000°04'0 0.0
2018-Feb-20 02:29N 05°40' E 000°04'0 0.0
2018-Feb-20 02:00N 05°40' E 000°04'0 0.0
2018-Feb-20 01:30N 05°40' E 000°04'0 0.0
2018-Feb-20 01:00N 05°40' E 000°04'0 0.0
2018-Feb-20 00:29N 05°40' E 000°04'0 0.0
2018-Feb-19 23:57N 05°40' E 000°04'0 0.0
2018-Feb-19 23:31N 05°40' E 000°04'0 0.0
2018-Feb-19 22:59N 05°40' E 000°04'0 0.0
2018-Feb-19 22:30N 05°40' E 000°04'0 0.0
2018-Feb-19 22:01N 05°40' E 000°04'0 0.0
2018-Feb-19 21:28N 05°40' E 000°04'0 0.0
2018-Feb-19 21:00N 05°40' E 000°04'0 0.0
2018-Feb-19 20:30N 05°40' E 000°04'0 0.0
2018-Feb-19 19:59N 05°40' E 000°04'0 0.0
2018-Feb-19 19:31N 05°40' E 000°04'0 0.0
2018-Feb-19 19:00N 05°40' E 000°04'0 0.0
2018-Feb-19 18:30N 05°40' E 000°04'0 0.0
2018-Feb-19 18:00N 05°40' E 000°04'0 0.0
2018-Feb-19 17:30N 05°40' E 000°04'0 0.0
2018-Feb-19 17:00N 05°40' E 000°04'0 0.0
2018-Feb-19 16:30N 05°40' E 000°04'0 0.0
2018-Feb-19 16:00N 05°40' E 000°04'2 3.1
2018-Feb-19 15:27N 05°38' E 000°04'0 0.4
2018-Feb-19 15:01N 05°38' E 000°05'0 0.6
2018-Feb-19 14:31N 05°38' E 000°04'0 0.6
2018-Feb-19 14:00N 05°38' E 000°05'0 0.1
2018-Feb-19 13:20N 05°38' E 000°05'0 0.3
2018-Feb-19 13:00N 05°38' E 000°05'0 0.1
2018-Feb-19 12:30N 05°38' E 000°05'0 0.9
2018-Feb-19 11:59N 05°38' E 000°05'0 0.6
2018-Feb-19 11:31N 05°38' E 000°05'0 0.2
2018-Feb-19 10:58N 05°38' E 000°05'0 0.5
2018-Feb-19 10:30N 05°38' E 000°05'0 0.1
2018-Feb-19 10:01N 05°38' E 000°05'0 0.7
2018-Feb-19 09:30N 05°38' E 000°05'1 1.7
2018-Feb-19 09:01N 05°39' E 000°04'0 1.0
2018-Feb-19 08:31N 05°39' E 000°04'0 0.0
2018-Feb-19 08:00N 05°39' E 000°04'0 0.0
2018-Feb-19 07:30N 05°39' E 000°04'0 0.0
2018-Feb-19 07:00N 05°39' E 000°04'0 0.0
2018-Feb-19 06:30N 05°39' E 000°04'0 0.0
2018-Feb-19 06:00N 05°39' E 000°04'0 0.0
2018-Feb-19 05:30N 05°39' E 000°04'0 0.0
2018-Feb-19 05:00N 05°39' E 000°04'0 0.0
2018-Feb-19 04:30N 05°39' E 000°04'0 0.0
2018-Feb-19 04:00N 05°39' E 000°04'0 0.0
2018-Feb-19 03:30N 05°39' E 000°04'0 0.0
2018-Feb-19 02:57N 05°39' E 000°04'0 0.0
2018-Feb-19 02:30N 05°39' E 000°04'0 0.0
2018-Feb-19 02:00N 05°39' E 000°04'0 0.0
2018-Feb-19 01:30N 05°39' E 000°04'0 0.0
2018-Feb-19 01:00N 05°39' E 000°04'0 0.0
2018-Feb-19 00:30N 05°40' E 000°04'0 0.0
2018-Feb-19 00:00N 05°39' E 000°04'0 0.0
2018-Feb-18 23:30N 05°39' E 000°04'0 0.0
2018-Feb-18 23:00N 05°39' E 000°04'0 0.0
2018-Feb-18 22:30N 05°39' E 000°04'0 0.0
2018-Feb-18 22:00N 05°39' E 000°04'0 0.0
2018-Feb-18 21:30N 05°39' E 000°04'0 0.0
2018-Feb-18 21:00N 05°39' E 000°04'0 0.0
2018-Feb-18 20:30N 05°40' E 000°04'0 0.0
2018-Feb-18 20:00N 05°39' E 000°04'0 0.0
2018-Feb-18 19:29N 05°39' E 000°04'0 0.0
2018-Feb-18 19:00N 05°39' E 000°04'0 0.0
2018-Feb-18 18:30N 05°39' E 000°04'0 0.0
2018-Feb-18 18:00N 05°39' E 000°04'0 0.0
2018-Feb-18 17:30N 05°39' E 000°04'0 0.0
2018-Feb-18 17:00N 05°39' E 000°04'0 0.0
2018-Feb-18 16:30N 05°40' E 000°04'0 0.0
2018-Feb-18 16:00N 05°40' E 000°04'0 0.0
2018-Feb-18 15:30N 05°40' E 000°04'0 0.0
2018-Feb-18 15:00N 05°40' E 000°04'0 0.0
2018-Feb-18 14:30N 05°40' E 000°04'0 0.0
2018-Feb-18 14:00N 05°39' E 000°04'2 3.5
2018-Feb-18 13:30N 05°38' E 000°04'0 1.0
2018-Feb-18 13:00N 05°38' E 000°05'0 0.8
2018-Feb-18 12:30N 05°38' E 000°05'2 3.3
2018-Feb-18 11:59N 05°40' E 000°04'0 0.0
2018-Feb-18 11:30N 05°40' E 000°04'0 0.0
2018-Feb-18 11:00N 05°39' E 000°04'0 0.0
2018-Feb-18 10:30N 05°39' E 000°04'1 1.2
2018-Feb-18 10:00N 05°39' E 000°05'1 0.9
2018-Feb-18 08:53N 05°38' E 000°05'0 0.4
2018-Feb-18 08:30N 05°38' E 000°05'0 0.1
2018-Feb-18 08:00N 05°38' E 000°05'2 3.0
2018-Feb-18 07:30N 05°40' E 000°04'0 0.0
2018-Feb-18 07:00N 05°39' E 000°04'0 0.0
2018-Feb-18 06:30N 05°39' E 000°04'0 0.0
2018-Feb-18 06:00N 05°39' E 000°04'0 0.0
2018-Feb-18 05:30N 05°40' E 000°04'0 0.0
2018-Feb-18 05:00N 05°39' E 000°04'0 0.0
2018-Feb-18 04:30N 05°39' E 000°04'0 0.0
2018-Feb-18 04:00N 05°40' E 000°04'0 0.0
2018-Feb-18 03:30N 05°39' E 000°04'0 0.0
2018-Feb-18 02:59N 05°39' E 000°04'0 0.0
2018-Feb-18 02:30N 05°39' E 000°04'0 0.0
2018-Feb-18 02:00N 05°39' E 000°04'0 0.0
2018-Feb-18 01:29N 05°39' E 000°04'0 0.0
2018-Feb-18 00:59N 05°39' E 000°04'0 0.0
2018-Feb-18 00:30N 05°39' E 000°04'0 0.0
2018-Feb-18 00:00N 05°39' E 000°04'0 0.0
2018-Feb-17 23:29N 05°39' E 000°04'0 0.0
2018-Feb-17 23:00N 05°39' E 000°04'0 0.0
2018-Feb-17 22:30N 05°39' E 000°04'0 0.0
2018-Feb-17 22:00N 05°39' E 000°04'0 0.0
2018-Feb-17 21:30N 05°40' E 000°04'0 0.0
2018-Feb-17 20:59N 05°39' E 000°04'0 0.0
2018-Feb-17 20:30N 05°39' E 000°04'0 0.0
2018-Feb-17 20:00N 05°39' E 000°04'0 0.0
2018-Feb-17 19:30N 05°39' E 000°04'0 0.0
2018-Feb-17 19:00N 05°39' E 000°04'0 0.0
2018-Feb-17 18:30N 05°39' E 000°04'0 0.0
2018-Feb-17 18:00N 05°39' E 000°04'0 0.0
2018-Feb-17 17:30N 05°39' E 000°04'0 0.0
2018-Feb-17 17:00N 05°40' E 000°04'0 0.0
2018-Feb-17 16:30N 05°40' E 000°04'0 0.0
2018-Feb-17 15:59N 05°40' E 000°04'0 0.0
2018-Feb-17 15:30N 05°40' E 000°04'0 0.0
2018-Feb-17 15:00N 05°40' E 000°04'0 0.0
2018-Feb-17 14:29N 05°40' E 000°04'0 0.0
2018-Feb-17 14:00N 05°40' E 000°04'0 0.0
2018-Feb-17 13:30N 05°40' E 000°04'1 1.1
2018-Feb-17 12:59N 05°39' E 000°05'0 0.9
2018-Feb-17 12:30N 05°39' E 000°04'0 0.4
2018-Feb-17 12:01N 05°39' E 000°04'0 0.3
2018-Feb-17 11:30N 05°39' E 000°04'0 0.4
2018-Feb-17 11:01N 05°39' E 000°04'0 0.7
2018-Feb-17 10:30N 05°39' E 000°04'0 0.1
2018-Feb-17 09:58N 05°39' E 000°04'0 0.4
2018-Feb-17 09:30N 05°39' E 000°04'0 0.0
2018-Feb-17 09:00N 05°39' E 000°04'0 0.6
2018-Feb-17 08:30N 05°39' E 000°04'0 0.4
2018-Feb-17 08:00N 05°39' E 000°04'1 2.6
2018-Feb-17 07:31N 05°38' E 000°05'1 1.9
2018-Feb-17 07:01N 05°38' E 000°05'1 1.6
2018-Feb-17 06:31N 05°38' E 000°05'1 2.6
2018-Feb-17 06:00N 05°39' E 000°04'0 0.0
2018-Feb-17 05:30N 05°39' E 000°04'0 0.0
2018-Feb-17 05:00N 05°39' E 000°04'0 0.0
2018-Feb-17 04:30N 05°39' E 000°04'0 0.0
2018-Feb-17 04:00N 05°39' E 000°04'0 0.0
2018-Feb-17 03:30N 05°39' E 000°04'0 0.0
2018-Feb-17 02:58N 05°39' E 000°04'0 0.0
2018-Feb-17 02:29N 05°39' E 000°04'0 0.0
2018-Feb-17 01:59N 05°39' E 000°04'0 0.0
2018-Feb-17 01:30N 05°39' E 000°04'0 0.0
2018-Feb-17 01:00N 05°39' E 000°04'0 0.0
2018-Feb-17 00:30N 05°39' E 000°04'0 0.0
2018-Feb-17 00:00N 05°39' E 000°04'0 0.0
2018-Feb-16 23:30N 05°39' E 000°04'0 0.0
2018-Feb-16 23:00N 05°39' E 000°04'0 0.0
2018-Feb-16 22:30N 05°39' E 000°04'0 0.0
2018-Feb-16 22:00N 05°39' E 000°04'0 0.0
2018-Feb-16 21:30N 05°39' E 000°04'0 0.0
2018-Feb-16 21:00N 05°39' E 000°04'0 0.0
2018-Feb-16 20:29N 05°39' E 000°04'0 0.0
2018-Feb-16 20:00N 05°39' E 000°04'0 0.0
2018-Feb-16 19:30N 05°39' E 000°04'0 0.0
2018-Feb-16 19:00N 05°39' E 000°04'0 0.0
2018-Feb-16 18:30N 05°39' E 000°04'0 0.0
2018-Feb-16 18:00N 05°39' E 000°04'0 0.0
2018-Feb-16 17:30N 05°39' E 000°04'0 0.0
2018-Feb-16 17:00N 05°39' E 000°04'0 0.0
2018-Feb-16 16:30N 05°39' E 000°04'0 0.0
2018-Feb-16 16:00N 05°39' E 000°04'0 0.0
2018-Feb-16 15:30N 05°40' E 000°04'0 0.0
2018-Feb-16 15:00N 05°40' E 000°04'1 1.3
2018-Feb-16 14:29N 05°39' E 000°04'0 0.5
2018-Feb-16 14:01N 05°39' E 000°04'0 0.1
2018-Feb-16 13:30N 05°39' E 000°04'0 0.4
2018-Feb-16 13:01N 05°39' E 000°04'0 0.6
2018-Feb-16 12:30N 05°39' E 000°04'0 0.2
2018-Feb-16 12:00N 05°39' E 000°04'0 1.0
2018-Feb-16 11:30N 05°39' E 000°05'1 1.2
2018-Feb-16 11:00N 05°39' E 000°04'0 0.5
2018-Feb-16 10:30N 05°39' E 000°04'1 2.4
2018-Feb-16 09:55N 05°38' E 000°05'0 0.4
2018-Feb-16 09:30N 05°38' E 000°05'0 0.4
2018-Feb-16 09:00N 05°38' E 000°04'0 0.1
2018-Feb-16 08:30N 05°38' E 000°05'0 0.5
2018-Feb-16 08:00N 05°38' E 000°05'0 0.3
2018-Feb-16 07:30N 05°38' E 000°05'2 3.1
2018-Feb-16 07:01N 05°39' E 000°04'0 0.0
2018-Feb-16 06:30N 05°39' E 000°04'0 0.0
2018-Feb-16 05:59N 05°39' E 000°04'0 0.0
2018-Feb-16 05:30N 05°39' E 000°04'0 0.0
2018-Feb-16 05:00N 05°39' E 000°04'0 0.0
2018-Feb-16 04:30N 05°39' E 000°04'0 0.0
2018-Feb-16 04:00N 05°39' E 000°04'0 0.0
2018-Feb-16 03:29N 05°39' E 000°04'0 0.0
2018-Feb-16 03:00N 05°39' E 000°04'0 0.0
2018-Feb-16 02:30N 05°39' E 000°04'0 0.0
2018-Feb-16 02:00N 05°39' E 000°04'0 0.0
2018-Feb-16 01:30N 05°39' E 000°04'0 0.0
2018-Feb-16 01:00N 05°39' E 000°04'0 0.0
2018-Feb-16 00:30N 05°39' E 000°04'0 0.0
2018-Feb-16 00:00N 05°39' E 000°04'0 0.0
2018-Feb-15 23:30N 05°39' E 000°04'0 0.0
2018-Feb-15 23:00N 05°39' E 000°04'0 0.0
2018-Feb-15 22:30N 05°39' E 000°04'0 0.0
2018-Feb-15 22:00N 05°40' E 000°04'0 0.0
2018-Feb-15 21:30N 05°40' E 000°04'0 0.0
2018-Feb-15 21:00N 05°40' E 000°04'0 0.0
2018-Feb-15 20:30N 05°40' E 000°04'0 0.0
2018-Feb-15 20:00N 05°39' E 000°04'0 0.0
2018-Feb-15 19:30N 05°40' E 000°04'0 0.0
2018-Feb-15 19:00N 05°40' E 000°04'0 0.0
2018-Feb-15 18:30N 05°39' E 000°04'0 0.0
2018-Feb-15 18:00N 05°39' E 000°04'0 0.0
2018-Feb-15 17:30N 05°39' E 000°04'0 0.0
2018-Feb-15 16:58N 05°40' E 000°04'0 0.0
2018-Feb-15 16:30N 05°40' E 000°04'0 0.0
2018-Feb-15 16:00N 05°40' E 000°04'0 0.0
2018-Feb-15 15:30N 05°40' E 000°04'0 0.0
2018-Feb-15 15:00N 05°40' E 000°04'0 0.0
2018-Feb-15 14:30N 05°40' E 000°04'0 0.0
2018-Feb-15 13:59N 05°40' E 000°04'0 0.0
2018-Feb-15 13:30N 05°40' E 000°04'1 1.3
2018-Feb-15 13:00N 05°39' E 000°04'0 0.2
2018-Feb-15 12:27N 05°39' E 000°04'0 0.0
2018-Feb-15 11:59N 05°39' E 000°04'0 0.2
2018-Feb-15 11:31N 05°39' E 000°04'0 0.4
2018-Feb-15 11:00N 05°39' E 000°04'0 0.2
2018-Feb-15 10:31N 05°39' E 000°04'0 0.1
2018-Feb-15 09:59N 05°39' E 000°04'0 0.5
2018-Feb-15 09:31N 05°39' E 000°04'0 0.3
2018-Feb-15 09:01N 05°39' E 000°04'2 3.5
2018-Feb-15 08:28N 05°38' E 000°06'1 1.8
2018-Feb-15 07:59N 05°38' E 000°06'2 4.7
2018-Feb-15 07:30N 05°39' E 000°04'0 0.0
2018-Feb-15 07:00N 05°39' E 000°04'0 0.0
2018-Feb-15 06:30N 05°39' E 000°04'0 0.0
2018-Feb-15 06:00N 05°39' E 000°04'0 0.0
2018-Feb-15 05:30N 05°39' E 000°04'0 0.0
2018-Feb-15 05:00N 05°39' E 000°04'0 0.0
2018-Feb-15 04:30N 05°39' E 000°04'0 0.0
2018-Feb-15 03:58N 05°39' E 000°04'0 0.0
2018-Feb-15 03:30N 05°39' E 000°04'0 0.0
2018-Feb-15 03:00N 05°40' E 000°04'0 0.0
2018-Feb-15 02:30N 05°40' E 000°04'0 0.0
2018-Feb-15 02:00N 05°40' E 000°04'0 0.0
2018-Feb-15 01:30N 05°40' E 000°04'0 0.0
2018-Feb-15 01:00N 05°40' E 000°04'0 0.0
2018-Feb-15 00:30N 05°40' E 000°04'0 0.0
2018-Feb-15 00:00N 05°40' E 000°04'0 0.0
2018-Feb-14 23:30N 05°40' E 000°04'0 0.0
2018-Feb-14 23:00N 05°40' E 000°04'0 0.0
2018-Feb-14 22:30N 05°40' E 000°04'0 0.0
2018-Feb-14 22:00N 05°40' E 000°04'0 0.0
2018-Feb-14 21:30N 05°40' E 000°04'0 0.0
2018-Feb-14 21:00N 05°40' E 000°04'0 0.0
2018-Feb-14 20:30N 05°40' E 000°04'0 0.0
2018-Feb-14 19:58N 05°40' E 000°04'0 0.0
2018-Feb-14 19:30N 05°40' E 000°04'0 0.0
2018-Feb-14 18:59N 05°40' E 000°04'0 0.0
2018-Feb-14 18:30N 05°40' E 000°04'0 0.0
2018-Feb-14 18:00N 05°40' E 000°04'0 0.0
2018-Feb-14 17:30N 05°40' E 000°04'0 0.0
2018-Feb-14 17:00N 05°40' E 000°04'0 0.0
2018-Feb-14 16:29N 05°40' E 000°04'0 0.0
2018-Feb-14 16:00N 05°40' E 000°04'0 0.0
2018-Feb-14 15:31N 05°40' E 000°04'0 0.0
2018-Feb-14 15:00N 05°40' E 000°04'0 0.0
2018-Feb-14 14:30N 05°40' E 000°04'0 0.0
2018-Feb-14 14:00N 05°40' E 000°04'0 0.0
2018-Feb-14 13:30N 05°40' E 000°04'0 0.0
2018-Feb-14 13:00N 05°40' E 000°04'0 0.0
2018-Feb-14 12:30N 05°40' E 000°04'0 0.0
2018-Feb-14 12:00N 05°40' E 000°04'0 0.0
2018-Feb-14 11:30N 05°40' E 000°04'0 0.0
2018-Feb-14 11:00N 05°40' E 000°04'0 0.1
2018-Feb-14 10:29N 05°39' E 000°04'1 1.4
2018-Feb-14 10:00N 05°39' E 000°04'0 0.1
2018-Feb-14 09:30N 05°39' E 000°04'0 0.1
2018-Feb-14 09:00N 05°39' E 000°04'0 0.1
2018-Feb-14 08:30N 05°39' E 000°04'  

Dump ship's entire track history